Time;durP1;ratioP1;P1;durP2;ratioP2;P2;SDS_P1;SDS_P2;PMS_P1;PMS_P2;Temp;Humidity;BMP_temperature;BMP_pressure;BME280_temperature;BME280_humidity;BME280_pressure;Samples;Min_cycle;Max_cycle;Signal;HPM_P1;HPM_P2
2022/09/17 00:00:16;;;;;;;0.10;0.10;;;;;;;;;;5033547;28;20231;-64
2022/09/17 00:02:46;;;;;;;0.10;0.10;;;;;;;;;;5072132;28;20260;-64
2022/09/17 00:05:13;;;;;;;0.10;0.10;;;;;;;;;;5034055;28;20216;-64
2022/09/17 00:07:39;;;;;;;0.00;0.00;;;;;;;;;;5071993;28;20437;-65
2022/09/17 00:10:06;;;;;;;0.10;0.10;;;;;;;;;;5039152;28;20204;-65
2022/09/17 00:12:32;;;;;;;0.10;0.10;;;;;;;;;;5073751;28;20237;-64
2022/09/17 00:14:58;;;;;;;0.10;0.10;;;;;;;;;;5041975;28;20225;-64
2022/09/17 00:17:25;;;;;;;0.10;0.10;;;;;;;;;;5066982;28;20242;-64
2022/09/17 00:19:52;;;;;;;0.10;0.10;;;;;;;;;;5045672;28;20206;-64
2022/09/17 00:22:19;;;;;;;0.03;0.03;;;;;;;;;;5067224;28;20246;-64
2022/09/17 00:24:45;;;;;;;0.10;0.10;;;;;;;;;;5045598;28;20208;-65
2022/09/17 00:27:12;;;;;;;0.10;0.10;;;;;;;;;;5067048;28;20252;-64
2022/09/17 00:29:38;;;;;;;0.10;0.10;;;;;;;;;;5045214;28;20228;-66
2022/09/17 00:32:04;;;;;;;0.10;0.10;;;;;;;;;;5066761;28;20253;-65
2022/09/17 00:34:31;;;;;;;0.10;0.10;;;;;;;;;;5045246;28;20215;-65
2022/09/17 00:36:58;;;;;;;0.10;0.10;;;;;;;;;;5064777;28;20479;-65
2022/09/17 00:39:25;;;;;;;0.10;0.10;;;;;;;;;;5046893;28;20206;-63
2022/09/17 00:41:51;;;;;;;0.10;0.10;;;;;;;;;;5062979;28;20240;-64
2022/09/17 00:44:39;;;;;;;0.10;0.10;;;;;;;;;;5048816;28;20211;-64
2022/09/17 00:47:07;;;;;;;0.10;0.10;;;;;;;;;;5066625;28;20248;-63
2022/09/17 00:49:34;;;;;;;0.10;0.10;;;;;;;;;;5045168;28;20207;-64
2022/09/17 00:52:04;;;;;;;0.10;0.10;;;;;;;;;;5065639;28;20240;-64
2022/09/17 00:54:31;;;;;;;0.10;0.10;;;;;;;;;;5045320;28;20196;-64
2022/09/17 00:56:57;;;;;;;0.10;0.10;;;;;;;;;;5064475;28;20249;-64
2022/09/17 00:59:24;;;;;;;0.10;0.10;;;;;;;;;;5046706;28;20215;-63
2022/09/17 01:01:51;;;;;;;0.00;0.00;;;;;;;;;;5062604;28;20241;-65
2022/09/17 01:04:17;;;;;;;0.10;0.10;;;;;;;;;;5048459;28;20214;-65
2022/09/17 01:06:47;;;;;;;0.10;0.10;;;;;;;;;;5060976;28;20575;-64
2022/09/17 01:09:23;;;;;;;0.10;0.10;;;;;;;;;;5049300;28;20532;-65
2022/09/17 01:11:57;;;;;;;0.10;0.10;;;;;;;;;;5061904;28;20243;-65
2022/09/17 01:14:38;;;;;;;0.10;0.10;;;;;;;;;;5046990;28;20223;-64
2022/09/17 01:17:07;;;;;;;0.10;0.10;;;;;;;;;;5066432;28;20307;-64
2022/09/17 01:19:54;;;;;;;0.10;0.10;;;;;;;;;;5044317;28;20213;-64
2022/09/17 01:22:24;;;;;;;0.10;0.10;;;;;;;;;;5026756;28;20244;-64
2022/09/17 01:25:00;;;;;;;0.10;0.10;;;;;;;;;;5044532;28;20211;-64
2022/09/17 01:27:47;;;;;;;0.10;0.10;;;;;;;;;;5066413;28;20290;-64
2022/09/17 01:30:21;;;;;;;0.10;0.10;;;;;;;;;;5036123;28;20219;-63
2022/09/17 01:32:51;;;;;;;0.10;0.10;;;;;;;;;;5072054;28;20260;-65
2022/09/17 01:35:19;;;;;;;0.10;0.10;;;;;;;;;;5037628;28;20215;-65
2022/09/17 01:37:49;;;;;;;0.10;0.10;;;;;;;;;;5072328;28;20221;-63
2022/09/17 01:40:17;;;;;;;0.10;0.10;;;;;;;;;;5036464;28;20449;-64
2022/09/17 01:42:46;;;;;;;0.10;0.10;;;;;;;;;;5072748;28;20194;-64
2022/09/17 01:45:15;;;;;;;0.10;0.10;;;;;;;;;;5036194;28;20212;-64
2022/09/17 01:47:44;;;;;;;0.10;0.10;;;;;;;;;;5073108;28;20196;-64
2022/09/17 01:50:13;;;;;;;0.07;0.07;;;;;;;;;;5034992;28;20218;-65
2022/09/17 01:52:41;;;;;;;0.10;0.10;;;;;;;;;;5073859;28;20491;-66
2022/09/17 01:55:08;;;;;;;0.10;0.10;;;;;;;;;;5034350;28;20518;-65
2022/09/17 01:57:36;;;;;;;0.10;0.10;;;;;;;;;;5074808;28;20288;-64
2022/09/17 02:00:05;;;;;;;0.10;0.10;;;;;;;;;;5043794;28;20395;-64
2022/09/17 02:02:33;;;;;;;0.10;0.10;;;;;;;;;;5032184;28;20216;-64
2022/09/17 02:05:02;;;;;;;0.10;0.10;;;;;;;;;;5043904;28;20204;-64
2022/09/17 02:07:31;;;;;;;0.10;0.10;;;;;;;;;;5065383;28;20243;-63
2022/09/17 02:09:59;;;;;;;0.10;0.10;;;;;;;;;;5043584;28;20505;-64
2022/09/17 02:12:28;;;;;;;0.10;0.10;;;;;;;;;;5065249;28;20482;-64
2022/09/17 02:14:57;;;;;;;0.10;0.10;;;;;;;;;;5043740;28;20242;-64
2022/09/17 02:17:25;;;;;;;0.10;0.10;;;;;;;;;;5065155;28;20487;-64
2022/09/17 02:19:53;;;;;;;0.10;0.10;;;;;;;;;;5043420;28;20206;-64
2022/09/17 02:22:22;;;;;;;0.10;0.10;;;;;;;;;;5065099;28;20336;-64
2022/09/17 02:24:55;;;;;;;0.10;0.10;;;;;;;;;;5043359;28;20211;-64
2022/09/17 02:27:24;;;;;;;0.10;0.10;;;;;;;;;;5065164;28;20239;-63
2022/09/17 02:29:50;;;;;;;0.00;0.00;;;;;;;;;;5043046;28;20488;-64
2022/09/17 02:32:17;;;;;;;0.10;0.10;;;;;;;;;;5064966;28;20245;-64
2022/09/17 02:34:43;;;;;;;0.00;0.00;;;;;;;;;;5042891;28;20224;-64
2022/09/17 02:37:09;;;;;;;0.10;0.10;;;;;;;;;;5064875;28;20241;-64
2022/09/17 02:39:36;;;;;;;0.07;0.07;;;;;;;;;;5042654;28;20225;-64
2022/09/17 02:42:07;;;;;;;0.10;0.10;;;;;;;;;;5063745;28;20258;-64
2022/09/17 02:44:37;;;;;;;0.10;0.10;;;;;;;;;;5042845;28;20203;-65
2022/09/17 02:47:13;;;;;;;0.10;0.10;;;;;;;;;;5064253;28;20246;-64
2022/09/17 02:49:49;;;;;;;0.10;0.10;;;;;;;;;;5043067;28;20205;-66
2022/09/17 02:52:18;;;;;;;0.10;0.10;;;;;;;;;;5064662;28;20296;-65
2022/09/17 02:54:51;;;;;;;0.10;0.10;;;;;;;;;;5042607;28;20208;-65
2022/09/17 02:57:21;;;;;;;0.10;0.10;;;;;;;;;;5064487;28;20439;-64
2022/09/17 02:59:52;;;;;;;0.10;0.10;;;;;;;;;;5042816;28;20224;-65
2022/09/17 03:02:20;;;;;;;0.10;0.10;;;;;;;;;;5064480;28;20257;-63
2022/09/17 03:04:47;;;;;;;0.10;0.10;;;;;;;;;;5042662;28;20503;-64
2022/09/17 03:07:13;;;;;;;0.10;0.10;;;;;;;;;;5064514;28;20406;-64
2022/09/17 03:09:42;;;;;;;0.10;0.10;;;;;;;;;;5042762;28;20209;-64
2022/09/17 03:12:08;;;;;;;0.10;0.10;;;;;;;;;;5064394;28;20236;-64
2022/09/17 03:14:36;;;;;;;0.10;0.10;;;;;;;;;;5042713;28;20358;-64
2022/09/17 03:17:02;;;;;;;0.10;0.10;;;;;;;;;;5063519;28;20437;-64
2022/09/17 03:19:29;;;;;;;0.00;0.00;;;;;;;;;;5042980;28;20466;-64
2022/09/17 03:21:55;;;;;;;0.10;0.10;;;;;;;;;;5061650;28;20320;-64
2022/09/17 03:24:21;;;;;;;0.10;0.10;;;;;;;;;;5044506;28;20255;-64
2022/09/17 03:26:49;;;;;;;0.10;0.10;;;;;;;;;;5059572;28;20257;-65
2022/09/17 03:29:15;;;;;;;0.10;0.10;;;;;;;;;;5046395;28;20427;-65
2022/09/17 03:31:43;;;;;;;0.10;0.10;;;;;;;;;;5057643;28;20239;-64
2022/09/17 03:34:09;;;;;;;0.10;0.10;;;;;;;;;;5048087;28;20205;-64
2022/09/17 03:36:35;;;;;;;0.10;0.10;;;;;;;;;;5056368;28;20364;-64
2022/09/17 03:39:02;;;;;;;0.03;0.03;;;;;;;;;;5049675;28;20207;-64
2022/09/17 03:41:28;;;;;;;0.10;0.10;;;;;;;;;;5053833;28;20233;-64
2022/09/17 03:43:54;;;;;;;0.07;0.07;;;;;;;;;;5051987;28;20203;-63
2022/09/17 03:46:21;;;;;;;0.00;0.00;;;;;;;;;;5051959;28;20246;-63
2022/09/17 03:48:48;;;;;;;0.10;0.10;;;;;;;;;;5054117;28;20207;-64
2022/09/17 03:51:15;;;;;;;0.10;0.10;;;;;;;;;;5052176;28;20238;-65
2022/09/17 03:53:41;;;;;;;0.10;0.10;;;;;;;;;;5059567;28;20212;-64
2022/09/17 03:56:07;;;;;;;0.10;0.10;;;;;;;;;;5049563;28;20240;-65
2022/09/17 03:58:34;;;;;;;0.10;0.10;;;;;;;;;;5063930;28;20229;-64
2022/09/17 04:01:02;;;;;;;0.10;0.10;;;;;;;;;;5049711;28;20404;-65
2022/09/17 04:03:28;;;;;;;0.10;0.10;;;;;;;;;;5063460;28;20227;-65
2022/09/17 04:05:56;;;;;;;0.10;0.10;;;;;;;;;;5047671;28;20240;-64
2022/09/17 04:08:22;;;;;;;0.10;0.10;;;;;;;;;;5065537;28;20387;-64
2022/09/17 04:10:49;;;;;;;0.10;0.10;;;;;;;;;;5047092;28;20239;-64
2022/09/17 04:13:15;;;;;;;0.07;0.07;;;;;;;;;;5065814;28;20232;-63
2022/09/17 04:15:42;;;;;;;0.10;0.10;;;;;;;;;;5045392;28;20589;-64
2022/09/17 04:18:08;;;;;;;0.10;0.10;;;;;;;;;;5067863;28;20211;-63
2022/09/17 04:20:35;;;;;;;0.10;0.10;;;;;;;;;;5043400;28;20278;-64
2022/09/17 04:23:02;;;;;;;0.10;0.10;;;;;;;;;;5068917;28;20340;-64
2022/09/17 04:25:29;;;;;;;0.10;0.10;;;;;;;;;;5041884;28;20239;-65
2022/09/17 04:27:56;;;;;;;0.10;0.10;;;;;;;;;;5070928;28;20432;-64
2022/09/17 04:30:22;;;;;;;0.10;0.10;;;;;;;;;;5039474;28;20417;-63
2022/09/17 04:32:49;;;;;;;0.10;0.10;;;;;;;;;;5072748;28;20393;-64
2022/09/17 04:35:15;;;;;;;0.10;0.10;;;;;;;;;;5037714;28;20216;-65
2022/09/17 04:37:41;;;;;;;0.10;0.10;;;;;;;;;;5074612;28;20192;-65
2022/09/17 04:40:10;;;;;;;0.10;0.10;;;;;;;;;;5035574;28;20206;-64
2022/09/17 04:42:36;;;;;;;0.10;0.10;;;;;;;;;;5076157;28;20273;-64
2022/09/17 04:45:03;;;;;;;0.10;0.10;;;;;;;;;;5045444;28;20215;-64
2022/09/17 04:47:29;;;;;;;0.10;0.10;;;;;;;;;;5067035;28;20568;-65
2022/09/17 04:49:55;;;;;;;0.10;0.10;;;;;;;;;;5045175;28;20295;-63
2022/09/17 04:52:22;;;;;;;0.10;0.10;;;;;;;;;;5044683;28;20206;-66
2022/09/17 04:54:48;;;;;;;0.10;0.10;;;;;;;;;;5045041;28;20208;-65
2022/09/17 04:57:16;;;;;;;0.10;0.10;;;;;;;;;;5066669;28;20571;-64
2022/09/17 04:59:42;;;;;;;0.10;0.10;;;;;;;;;;5045126;28;20219;-64
2022/09/17 05:02:08;;;;;;;0.10;0.10;;;;;;;;;;5066149;28;20267;-63
2022/09/17 05:04:34;;;;;;;0.10;0.10;;;;;;;;;;5045025;28;20213;-64
2022/09/17 05:07:01;;;;;;;0.10;0.10;;;;;;;;;;5065548;28;20269;-65
2022/09/17 05:09:27;;;;;;;0.10;0.10;;;;;;;;;;5045434;28;20206;-65
2022/09/17 05:11:54;;;;;;;0.10;0.10;;;;;;;;;;5063496;28;20241;-63
2022/09/17 05:14:21;;;;;;;0.10;0.10;;;;;;;;;;5047642;28;20381;-64
2022/09/17 05:16:49;;;;;;;0.10;0.10;;;;;;;;;;5061932;28;20243;-64
2022/09/17 05:19:16;;;;;;;0.10;0.10;;;;;;;;;;5048591;28;20208;-65
2022/09/17 05:21:42;;;;;;;0.07;0.07;;;;;;;;;;5059834;28;20390;-64
2022/09/17 05:24:08;;;;;;;0.10;0.10;;;;;;;;;;5050687;28;20207;-66
2022/09/17 05:26:34;;;;;;;0.10;0.10;;;;;;;;;;5057966;28;20280;-65
2022/09/17 05:29:01;;;;;;;0.10;0.10;;;;;;;;;;5052757;28;20459;-64
2022/09/17 05:31:28;;;;;;;0.10;0.10;;;;;;;;;;5055063;28;20239;-64
2022/09/17 05:33:55;;;;;;;0.10;0.10;;;;;;;;;;5055093;28;20201;-64
2022/09/17 05:36:21;;;;;;;0.10;0.10;;;;;;;;;;5054515;28;20244;-65
2022/09/17 05:38:47;;;;;;;0.10;0.10;;;;;;;;;;5055912;28;20212;-65
2022/09/17 05:41:14;;;;;;;0.00;0.00;;;;;;;;;;5052554;28;20596;-65
2022/09/17 05:43:42;;;;;;;0.03;0.03;;;;;;;;;;5057371;28;20235;-63
2022/09/17 05:46:09;;;;;;;0.00;0.00;;;;;;;;;;5051049;28;20240;-64
2022/09/17 05:48:37;;;;;;;0.10;0.10;;;;;;;;;;5058354;28;20556;-64
2022/09/17 05:51:03;;;;;;;0.10;0.10;;;;;;;;;;5049251;28;20261;-65
2022/09/17 05:53:29;;;;;;;0.10;0.10;;;;;;;;;;5060005;28;20209;-64
2022/09/17 05:55:56;;;;;;;0.10;0.10;;;;;;;;;;5047315;28;20261;-63
2022/09/17 05:58:23;;;;;;;0.10;0.10;;;;;;;;;;5062051;28;20308;-64
2022/09/17 06:00:49;;;;;;;0.10;0.10;;;;;;;;;;5045444;28;20293;-64
2022/09/17 06:03:16;;;;;;;0.10;0.10;;;;;;;;;;5063819;28;20235;-64
2022/09/17 06:05:44;;;;;;;0.10;0.10;;;;;;;;;;5043353;28;20250;-64
2022/09/17 06:08:10;;;;;;;0.10;0.10;;;;;;;;;;5065427;28;20207;-64
2022/09/17 06:10:37;;;;;;;0.10;0.10;;;;;;;;;;5041927;28;20410;-64
2022/09/17 06:13:04;;;;;;;0.10;0.10;;;;;;;;;;5066589;28;20489;-65
2022/09/17 06:15:30;;;;;;;0.00;0.00;;;;;;;;;;5040013;28;20244;-64
2022/09/17 06:17:56;;;;;;;0.10;0.10;;;;;;;;;;5068440;28;20212;-63
2022/09/17 06:20:23;;;;;;;0.00;0.00;;;;;;;;;;5038064;28;20215;-64
2022/09/17 06:22:55;;;;;;;0.10;0.10;;;;;;;;;;5069881;28;20268;-65
2022/09/17 06:25:22;;;;;;;0.10;0.10;;;;;;;;;;5037446;28;20280;-69
2022/09/17 06:27:48;;;;;;;0.10;0.10;;;;;;;;;;5070425;28;20207;-65
2022/09/17 06:30:15;;;;;;;0.10;0.10;;;;;;;;;;5035534;28;20225;-64
2022/09/17 06:32:41;;;;;;;0.10;0.10;;;;;;;;;;5072169;28;20196;-64
2022/09/17 06:35:08;;;;;;;0.10;0.10;;;;;;;;;;5033878;28;20204;-65
2022/09/17 06:37:35;;;;;;;0.10;0.10;;;;;;;;;;5073945;28;20214;-65
2022/09/17 06:40:03;;;;;;;0.00;0.00;;;;;;;;;;5043003;28;20209;-65
2022/09/17 06:42:29;;;;;;;0.10;0.10;;;;;;;;;;5031529;28;20225;-65
2022/09/17 06:44:57;;;;;;;0.10;0.10;;;;;;;;;;5042773;28;20224;-64
2022/09/17 06:47:24;;;;;;;0.10;0.10;;;;;;;;;;5064583;28;20260;-65
2022/09/17 06:49:50;;;;;;;0.10;0.10;;;;;;;;;;5042992;28;20213;-66
2022/09/17 06:52:16;;;;;;;0.10;0.10;;;;;;;;;;5064593;28;20245;-64
2022/09/17 06:54:43;;;;;;;0.10;0.10;;;;;;;;;;5042825;28;20460;-64
2022/09/17 06:57:10;;;;;;;0.10;0.10;;;;;;;;;;5064454;28;20253;-63
2022/09/17 06:59:37;;;;;;;0.10;0.10;;;;;;;;;;5042937;28;20511;-64
2022/09/17 07:02:03;;;;;;;0.10;0.10;;;;;;;;;;5063736;28;20463;-64
2022/09/17 07:04:29;;;;;;;0.10;0.10;;;;;;;;;;5042824;28;20521;-64
2022/09/17 07:06:56;;;;;;;0.10;0.10;;;;;;;;;;5061910;28;20239;-64
2022/09/17 07:09:22;;;;;;;0.10;0.10;;;;;;;;;;5045003;28;20400;-64
2022/09/17 07:11:49;;;;;;;0.10;0.10;;;;;;;;;;5060174;28;20495;-64
2022/09/17 07:14:17;;;;;;;0.10;0.10;;;;;;;;;;5046744;28;20271;-64
2022/09/17 07:16:44;;;;;;;0.10;0.10;;;;;;;;;;5058854;28;20246;-65
2022/09/17 07:19:10;;;;;;;0.10;0.10;;;;;;;;;;5047648;28;20205;-64
2022/09/17 07:21:36;;;;;;;0.10;0.10;;;;;;;;;;5056731;28;20306;-64
2022/09/17 07:24:03;;;;;;;0.10;0.10;;;;;;;;;;5049574;28;20328;-65
2022/09/17 07:26:29;;;;;;;0.10;0.10;;;;;;;;;;5054813;28;20240;-64
2022/09/17 07:28:56;;;;;;;0.10;0.10;;;;;;;;;;5051791;28;20251;-64
2022/09/17 07:31:23;;;;;;;0.10;0.10;;;;;;;;;;5052720;28;20247;-64
2022/09/17 07:33:50;;;;;;;0.10;0.10;;;;;;;;;;5053218;28;20208;-63
2022/09/17 07:36:17;;;;;;;0.10;0.10;;;;;;;;;;5051279;28;20254;-63
2022/09/17 07:38:43;;;;;;;0.10;0.10;;;;;;;;;;5055132;28;20208;-63
2022/09/17 07:41:11;;;;;;;0.10;0.10;;;;;;;;;;5049574;28;20247;-65
2022/09/17 07:43:38;;;;;;;0.10;0.10;;;;;;;;;;5056430;28;20252;-65
2022/09/17 07:46:04;;;;;;;0.10;0.10;;;;;;;;;;5047752;28;20246;-65
2022/09/17 07:48:32;;;;;;;0.10;0.10;;;;;;;;;;5058209;28;20209;-64
2022/09/17 07:50:58;;;;;;;0.00;0.00;;;;;;;;;;5046410;28;20250;-63
2022/09/17 07:53:25;;;;;;;0.10;0.10;;;;;;;;;;5059958;28;20207;-64
2022/09/17 07:55:52;;;;;;;0.10;0.10;;;;;;;;;;5044589;28;20312;-64
2022/09/17 07:58:19;;;;;;;0.10;0.10;;;;;;;;;;5061032;28;20596;-64
2022/09/17 08:00:45;;;;;;;0.10;0.10;;;;;;;;;;5042634;28;20239;-64
2022/09/17 08:03:11;;;;;;;0.10;0.10;;;;;;;;;;5063242;28;20386;-65
2022/09/17 08:05:39;;;;;;;0.10;0.10;;;;;;;;;;5040982;28;20239;-63
2022/09/17 08:08:06;;;;;;;0.10;0.10;;;;;;;;;;5065084;28;20208;-64
2022/09/17 08:10:32;;;;;;;0.10;0.10;;;;;;;;;;5039114;28;20244;-64
2022/09/17 08:12:58;;;;;;;0.10;0.10;;;;;;;;;;5066884;28;20201;-64
2022/09/17 08:15:25;;;;;;;0.10;0.10;;;;;;;;;;5037323;28;20251;-64
2022/09/17 08:17:52;;;;;;;0.07;0.07;;;;;;;;;;5068305;28;20193;-64
2022/09/17 08:20:18;;;;;;;0.10;0.10;;;;;;;;;;5035213;28;20396;-63
2022/09/17 08:22:46;;;;;;;0.10;0.10;;;;;;;;;;5069966;28;20243;-64
2022/09/17 08:25:12;;;;;;;0.10;0.10;;;;;;;;;;5033771;28;20341;-63
2022/09/17 08:27:39;;;;;;;0.10;0.10;;;;;;;;;;5071950;28;20196;-64
2022/09/17 08:30:06;;;;;;;0.10;0.10;;;;;;;;;;5040539;28;20232;-69
2022/09/17 08:32:32;;;;;;;0.10;0.10;;;;;;;;;;5073770;28;20259;-65
2022/09/17 08:34:58;;;;;;;0.10;0.10;;;;;;;;;;5041879;28;20216;-65
2022/09/17 08:37:25;;;;;;;0.10;0.10;;;;;;;;;;5065139;28;20338;-63
2022/09/17 08:39:53;;;;;;;0.10;0.10;;;;;;;;;;5045623;28;20403;-64
2022/09/17 08:42:23;;;;;;;0.10;0.10;;;;;;;;;;5067109;28;20240;-79
2022/09/17 08:44:52;;;;;;;0.10;0.10;;;;;;;;;;5045731;28;20215;-80
2022/09/17 08:47:23;;;;;;;0.10;0.10;;;;;;;;;;5067313;28;20566;-79
2022/09/17 08:49:51;;;;;;;0.10;0.10;;;;;;;;;;5045324;28;20215;-79
2022/09/17 08:52:35;;;;;;;0.10;0.10;;;;;;;;;;5067770;28;20244;-79
2022/09/17 08:55:07;;;;;;;0.10;0.10;;;;;;;;;;5046195;28;20205;-79
2022/09/17 08:57:40;;;;;;;0.10;0.10;;;;;;;;;;5034007;28;20222;-79
2022/09/17 09:00:10;;;;;;;0.10;0.10;;;;;;;;;;5039308;28;20468;-78
2022/09/17 09:02:45;;;;;;;0.10;0.10;;;;;;;;;;5076881;28;20248;-79
2022/09/17 09:05:14;;;;;;;0.10;0.10;;;;;;;;;;5037603;28;20207;-79
2022/09/17 09:07:43;;;;;;;0.10;0.10;;;;;;;;;;5074311;28;20392;-78
2022/09/17 09:10:15;;;;;;;0.10;0.10;;;;;;;;;;5035898;28;20249;-80
2022/09/17 09:12:42;;;;;;;0.10;0.10;;;;;;;;;;5074172;28;20233;-79
2022/09/17 09:15:17;;;;;;;0.10;0.10;;;;;;;;;;5035278;28;20470;-80
2022/09/17 09:17:45;;;;;;;0.10;0.10;;;;;;;;;;5073693;28;20280;-78
2022/09/17 09:20:16;;;;;;;0.10;0.10;;;;;;;;;;5035959;28;20198;-79
2022/09/17 09:22:46;;;;;;;0.10;0.10;;;;;;;;;;5073486;28;20192;-80
2022/09/17 09:25:19;;;;;;;0.10;0.10;;;;;;;;;;5036304;28;20228;-81
2022/09/17 09:27:47;;;;;;;0.10;0.10;;;;;;;;;;5072892;28;20193;-81
2022/09/17 09:30:15;;;;;;;0.00;0.00;;;;;;;;;;5036702;28;20211;-81
2022/09/17 09:32:47;;;;;;;0.10;0.10;;;;;;;;;;5073741;28;20281;-81
2022/09/17 09:35:16;;;;;;;0.10;0.10;;;;;;;;;;5036237;28;20228;-81
2022/09/17 09:37:44;;;;;;;0.10;0.10;;;;;;;;;;5057745;28;20281;-80
2022/09/17 09:40:22;;;;;;;0.10;0.10;;;;;;;;;;5044276;28;20294;-80
2022/09/17 09:42:48;;;;;;;0.00;0.00;;;;;;;;;;5042479;28;20239;-80
2022/09/17 09:45:16;;;;;;;0.00;0.00;;;;;;;;;;5036517;28;20207;-79
2022/09/17 09:47:51;;;;;;;0.10;0.10;;;;;;;;;;5072733;28;20210;-81
2022/09/17 09:50:23;;;;;;;0.10;0.10;;;;;;;;;;5036902;28;20205;-78
2022/09/17 09:52:57;;;;;;;0.03;0.03;;;;;;;;;;5070576;28;20264;-81
2022/09/17 09:55:35;;;;;;;0.00;0.00;;;;;;;;;;5038178;28;20201;-79
2022/09/17 09:58:05;;;;;;;0.03;0.03;;;;;;;;;;5067895;28;20233;-80
2022/09/17 10:00:35;;;;;;;0.10;0.10;;;;;;;;;;5040662;28;20279;-79
2022/09/17 10:03:04;;;;;;;0.10;0.10;;;;;;;;;;5067531;28;20228;-79
2022/09/17 10:05:31;;;;;;;0.10;0.10;;;;;;;;;;5040224;28;20306;-80
2022/09/17 10:07:57;;;;;;;0.10;0.10;;;;;;;;;;5068803;28;20264;-80
2022/09/17 10:10:26;;;;;;;0.07;0.07;;;;;;;;;;5038186;28;20199;-80
2022/09/17 10:13:12;;;;;;;0.10;0.10;;;;;;;;;;5069906;28;20267;-79
2022/09/17 10:15:41;;;;;;;0.10;0.10;;;;;;;;;;5041656;28;20291;-78
2022/09/17 10:18:12;;;;;;;0.00;0.00;;;;;;;;;;5065986;28;20251;-80
2022/09/17 10:20:50;;;;;;;0.10;0.10;;;;;;;;;;5042288;28;20288;-79
2022/09/17 10:23:16;;;;;;;0.10;0.10;;;;;;;;;;5063528;28;20255;-81
2022/09/17 10:25:45;;;;;;;0.10;0.10;;;;;;;;;;5044143;28;20253;-77
2022/09/17 10:28:25;;;;;;;0.10;0.10;;;;;;;;;;5064641;28;20508;-80
2022/09/17 10:30:57;;;;;;;0.10;0.10;;;;;;;;;;5044895;28;20246;-79
2022/09/17 10:33:26;;;;;;;0.10;0.10;;;;;;;;;;5061562;28;20400;-80
2022/09/17 10:35:57;;;;;;;0.10;0.10;;;;;;;;;;5045474;28;20241;-80
2022/09/17 10:38:28;;;;;;;0.10;0.10;;;;;;;;;;5061293;28;20235;-79
2022/09/17 10:41:06;;;;;;;0.10;0.10;;;;;;;;;;5045759;28;20268;-79
2022/09/17 10:43:34;;;;;;;0.10;0.10;;;;;;;;;;5058388;28;20318;-80
2022/09/17 10:46:03;;;;;;;0.10;0.10;;;;;;;;;;5047629;28;20317;-80
2022/09/17 10:48:32;;;;;;;0.03;0.03;;;;;;;;;;5058976;28;20203;-78
2022/09/17 10:51:00;;;;;;;0.10;0.10;;;;;;;;;;5046465;28;20317;-80
2022/09/17 10:53:29;;;;;;;0.10;0.10;;;;;;;;;;5060337;28;20426;-79
2022/09/17 10:56:06;;;;;;;0.00;0.00;;;;;;;;;;5045847;28;20289;-80
2022/09/17 10:58:42;;;;;;;0.10;0.10;;;;;;;;;;5058485;28;20221;-79
2022/09/17 11:01:14;;;;;;;0.10;0.10;;;;;;;;;;5048837;28;20302;-80
2022/09/17 11:04:08;;;;;;;0.00;0.00;;;;;;;;;;5055924;28;20229;-80
2022/09/17 11:06:49;;;;;;;0.10;0.10;;;;;;;;;;4985777;28;20309;-79
2022/09/17 11:09:22;;;;;;;0.10;0.10;;;;;;;;;;5038870;28;20216;-81
2022/09/17 11:11:54;;;;;;;0.10;0.10;;;;;;;;;;5059653;28;20260;-79
2022/09/17 11:14:36;;;;;;;0.07;0.07;;;;;;;;;;5045628;28;20242;-79
2022/09/17 11:17:07;;;;;;;0.10;0.10;;;;;;;;;;5063583;28;20241;-81
2022/09/17 11:19:39;;;;;;;0.10;0.10;;;;;;;;;;5042724;28;20198;-79
2022/09/17 11:22:09;;;;;;;0.10;0.10;;;;;;;;;;5064284;28;20304;-79
2022/09/17 11:24:50;;;;;;;0.10;0.10;;;;;;;;;;5042493;28;20240;-79
2022/09/17 11:27:20;;;;;;;0.10;0.10;;;;;;;;;;5064120;28;20244;-80
2022/09/17 11:30:02;;;;;;;0.10;0.10;;;;;;;;;;5042524;28;20210;-78
2022/09/17 11:32:47;;;;;;;0.10;0.10;;;;;;;;;;5028149;28;20242;-80
2022/09/17 11:35:15;;;;;;;0.10;0.10;;;;;;;;;;5034611;28;20236;-79
2022/09/17 11:37:47;;;;;;;0.10;0.10;;;;;;;;;;5071326;28;20504;-79
2022/09/17 11:40:17;;;;;;;0.10;0.10;;;;;;;;;;5066747;28;20523;-79
2022/09/17 11:42:45;;;;;;;0.10;0.10;;;;;;;;;;5070855;28;20287;-80
2022/09/17 11:45:14;;;;;;;0.00;0.00;;;;;;;;;;5033287;28;20353;-80
2022/09/17 11:47:45;;;;;;;0.10;0.10;;;;;;;;;;5071371;28;20231;-81
2022/09/17 11:50:18;;;;;;;0.03;0.03;;;;;;;;;;5034081;28;20206;-79
2022/09/17 11:52:47;;;;;;;0.10;0.10;;;;;;;;;;5055658;28;20450;-81
2022/09/17 11:55:18;;;;;;;0.00;0.00;;;;;;;;;;5033977;28;20259;-66
2022/09/17 11:57:44;;;;;;;0.10;0.10;;;;;;;;;;5070538;28;20233;-65
2022/09/17 12:00:14;;;;;;;0.10;0.10;;;;;;;;;;5032783;28;20210;-65
2022/09/17 12:02:45;;;;;;;0.00;0.00;;;;;;;;;;5072436;28;20231;-64
2022/09/17 12:05:16;;;;;;;0.10;0.10;;;;;;;;;;5033734;28;20482;-65
2022/09/17 12:07:46;;;;;;;0.10;0.10;;;;;;;;;;5071217;28;20200;-66
2022/09/17 12:10:20;;;;;;;0.10;0.10;;;;;;;;;;5034203;28;20219;-64
2022/09/17 12:12:49;;;;;;;0.10;0.10;;;;;;;;;;5072678;28;20411;-66
2022/09/17 12:15:20;;;;;;;0.10;0.10;;;;;;;;;;5039677;28;20281;-71
2022/09/17 12:17:50;;;;;;;0.10;0.10;;;;;;;;;;5074874;28;20226;-72
2022/09/17 12:20:22;;;;;;;0.10;0.10;;;;;;;;;;5040133;28;20290;-71
2022/09/17 12:22:49;;;;;;;0.10;0.10;;;;;;;;;;5074078;28;20367;-70
2022/09/17 12:25:16;;;;;;;0.10;0.10;;;;;;;;;;5039609;28;20226;-65
2022/09/17 12:27:46;;;;;;;0.10;0.10;;;;;;;;;;5076185;28;20196;-65
2022/09/17 12:30:13;;;;;;;0.10;0.10;;;;;;;;;;5038694;28;20213;-65
2022/09/17 12:32:46;;;;;;;0.00;0.00;;;;;;;;;;5076436;28;20312;-66
2022/09/17 12:35:18;;;;;;;0.10;0.10;;;;;;;;;;5039242;28;20543;-65
2022/09/17 12:37:50;;;;;;;0.10;0.10;;;;;;;;;;5075027;28;20200;-68
2022/09/17 12:40:24;;;;;;;0.10;0.10;;;;;;;;;;5039170;28;20209;-74
2022/09/17 12:42:58;;;;;;;0.10;0.10;;;;;;;;;;5072684;28;20196;-77
2022/09/17 12:45:34;;;;;;;0.10;0.10;;;;;;;;;;5041151;28;20238;-68
2022/09/17 12:48:05;;;;;;;0.10;0.10;;;;;;;;;;5069790;28;20196;-68
2022/09/17 12:50:37;;;;;;;0.10;0.10;;;;;;;;;;5042969;28;20620;-68
2022/09/17 12:53:09;;;;;;;0.10;0.10;;;;;;;;;;5068525;28;20193;-65
2022/09/17 12:55:41;;;;;;;0.10;0.10;;;;;;;;;;5044699;28;20239;-73
2022/09/17 12:58:13;;;;;;;0.10;0.10;;;;;;;;;;5067756;28;20224;-71
2022/09/17 13:00:42;;;;;;;0.00;0.00;;;;;;;;;;5043891;28;20299;-71
2022/09/17 13:03:15;;;;;;;0.10;0.10;;;;;;;;;;5067226;28;20443;-72
2022/09/17 13:05:53;;;;;;;0.10;0.10;;;;;;;;;;5045773;28;20454;-71
2022/09/17 13:08:38;;;;;;;0.00;0.00;;;;;;;;;;5064845;28;20202;-73
2022/09/17 13:11:24;;;;;;;0.10;0.10;;;;;;;;;;5051023;28;20569;-70
2022/09/17 13:13:56;;;;;;;0.03;0.03;;;;;;;;;;5055928;28;20211;-71
2022/09/17 13:16:25;;;;;;;0.10;0.10;;;;;;;;;;5055214;28;20245;-71
2022/09/17 13:18:54;;;;;;;0.00;0.00;;;;;;;;;;5055729;28;20528;-65
2022/09/17 13:21:25;;;;;;;0.10;0.10;;;;;;;;;;5055333;28;20480;-70
2022/09/17 13:23:54;;;;;;;0.00;0.00;;;;;;;;;;5055128;28;20209;-70
2022/09/17 13:26:22;;;;;;;0.10;0.10;;;;;;;;;;5054650;28;20242;-66
2022/09/17 13:28:49;;;;;;;0.10;0.10;;;;;;;;;;5055527;28;20243;-68
2022/09/17 13:31:20;;;;;;;0.00;0.00;;;;;;;;;;5053393;28;20242;-67
2022/09/17 13:34:04;;;;;;;0.10;0.10;;;;;;;;;;5056864;28;20209;-66
2022/09/17 13:36:45;;;;;;;0.08;0.08;;;;;;;;;;5056780;28;20253;-66
2022/09/17 13:39:31;;;;;;;0.10;0.10;;;;;;;;;;5046374;28;20211;-66
2022/09/17 13:42:03;;;;;;;0.10;0.10;;;;;;;;;;5064014;28;20250;-66
2022/09/17 13:44:29;;;;;;;0.10;0.10;;;;;;;;;;5044851;28;20235;-67
2022/09/17 13:47:08;;;;;;;0.10;0.10;;;;;;;;;;5063530;28;20420;-67
2022/09/17 13:49:34;;;;;;;0.10;0.10;;;;;;;;;;5044465;28;20207;-68
2022/09/17 13:52:03;;;;;;;0.10;0.10;;;;;;;;;;5064037;28;20248;-77
2022/09/17 13:54:37;;;;;;;2.50;2.40;;;;;;;;;;5044702;28;20274;-73
2022/09/17 13:57:14;;;;;;;0.10;0.10;;;;;;;;;;5065283;28;20442;-72
2022/09/17 13:59:52;;;;;;;0.10;0.10;;;;;;;;;;5042579;28;20266;-72
2022/09/17 14:02:29;;;;;;;0.08;0.08;;;;;;;;;;5065600;28;20265;-72
2022/09/17 14:05:16;;;;;;;0.10;0.10;;;;;;;;;;5044139;28;20389;-74
2022/09/17 14:07:47;;;;;;;0.10;0.10;;;;;;;;;;5043620;28;20465;-65
2022/09/17 14:10:35;;;;;;;0.10;0.10;;;;;;;;;;5036156;28;20431;-66
2022/09/17 14:13:17;;;;;;;0.10;0.10;;;;;;;;;;5061073;28;20530;-67
2022/09/17 14:16:04;;;;;;;0.03;0.03;;;;;;;;;;5043210;28;20332;-68
2022/09/17 14:18:51;;;;;;;0.10;0.10;;;;;;;;;;5059752;28;20476;-66
2022/09/17 14:21:23;;;;;;;0.10;0.10;;;;;;;;;;5045896;28;20294;-66
2022/09/17 14:23:54;;;;;;;0.10;0.10;;;;;;;;;;5054121;28;20205;-67
2022/09/17 14:26:26;;;;;;;0.10;0.10;;;;;;;;;;5053306;28;20238;-66
2022/09/17 14:28:55;;;;;;;0.10;0.10;;;;;;;;;;5053276;28;20211;-78
2022/09/17 14:31:26;;;;;;;0.00;0.00;;;;;;;;;;5053501;28;20239;-77
2022/09/17 14:33:52;;;;;;;0.10;0.10;;;;;;;;;;5053116;28;20219;-77
2022/09/17 14:36:20;;;;;;;0.10;0.10;;;;;;;;;;5052171;28;20272;-76
2022/09/17 14:38:47;;;;;;;0.03;0.03;;;;;;;;;;5055063;28;20534;-76
2022/09/17 14:41:19;;;;;;;0.00;0.00;;;;;;;;;;5051507;28;20238;-75
2022/09/17 14:43:49;;;;;;;0.07;0.07;;;;;;;;;;5054652;28;20396;-75
2022/09/17 14:46:18;;;;;;;0.10;0.10;;;;;;;;;;5051072;28;20250;-66
2022/09/17 14:48:46;;;;;;;0.10;0.10;;;;;;;;;;5055163;28;20570;-70
2022/09/17 14:51:23;;;;;;;0.10;0.10;;;;;;;;;;5050449;28;20309;-70
2022/09/17 14:54:08;;;;;;;0.07;0.07;;;;;;;;;;5053747;28;20206;-71
2022/09/17 14:56:36;;;;;;;0.10;0.10;;;;;;;;;;5056165;28;20266;-71